< < Back
Terminal Aerodrome Forecast


Current Version              Previous Versions:   1  2  3  4  5  6  7  8  9  

Terminal Aerodrome Forecast

290
FTUS42 KCHS 232324
TAFSAV
TAF
KSAV 232324Z 2400/2424 21007KT P6SM SKC
     FM241300 25009KT P6SM SCT250=

Latest METAR

331
SAUS80 KWBC 250300 RRA
MTRSAV
METAR KSAV 250253Z 18009KT 10SM FEW250 28/24 A3004 RMK AO2 SLP170
T02830244 51014


USA.gov is the U.S. government's official web portal to all federal, state and local government web resources and services.